ADDS TAF Board (Experimental) INFO Settings
IDs: Format: Expanded Condensed

KTPA - Tampa Intl Arpt, FL, US

Issued at 1306 UTC 04 May 2016
Updated at: 1340 UTC 04 May 2016
Time1333Z 04/14Z 04/15Z 04/16Z 04/17Z 04/18Z 04/19Z 04/20Z 04/21Z 04/22Z 04/23Z 05/00Z 05/01Z 05/02Z
Type OBS PRVL PRVL PRVL PRVL PRVL PRVL PRVL PRVL PRVL PRVL PRVL PRVL PRVL
VIS 8 6 >6 >6 >6 >6 >6 >6 >6 >6 >6 >6 >6 >6
CIG 110 50 35 35 35 35 20 20 20 20 20 70 70 70
Cover OVC BKN BKN BKN BKN BKN BKN BKN BKN BKN BKN BKN BKN BKN
FltCat VFR VFR VFR VFR VFR VFR MVFR MVFR MVFR MVFR MVFR VFR VFR VFR
WX -RA -TSRA -- -- -- -- VCSH VCSH VCSH VCSH VCSH -- -- --
WDir 130 260 250 250 250 250 260 260 260 260 260 280 280 280
WSpd 5 10 10 10 10 10 12 12 12 12 12 9 9 9
WGst -- -- -- -- -- -- 20 20 20 20 20 -- -- --
R01/19
XWnd -4 10 9 9 9 9 12 12 12 12 12 9 9 9
XGst -- -- -- -- -- -- 20 20 20 20 20 -- -- --
HWnd -3 -2 -4 -4 -4 -4 -2 -2 -2 -2 -2 1 1 1
HGst -- -- -- -- -- -- -4 -4 -4 -4 -4 -- -- --
R10/28
XWnd -3 -2 -4 -4 -4 -4 -2 -2 -2 -2 -2 1 1 1
XGst -- -- -- -- -- -- -4 -4 -4 -4 -4 -- -- --
HWnd 4 -10 -9 -9 -9 -9 -12 -12 -12 -12 -12 -9 -9 -9
HGst -- -- -- -- -- -- -20 -20 -20 -20 -20 -- -- --

NOTE: TEMPO conditions in [brackets]. Keep in mind TEMPO conditions might be better (lower impact) than prevailing conditions.

Raw TAF
KTPA 041306Z 0413/0512 26010KT 6SM -TSRA SCT025 BKN050CB
  FM041500 25010KT P6SM SCT015 BKN035
  FM041900 26012G20KT P6SM VCSH BKN020
  FM050000 28009KT P6SM SCT025 BKN070


Raw METAR
KTPA 041333Z 13005KT 8SM -RA SCT060CB OVC110 23/22 A2984 RMK AO2 TSE33 CB SE-SW MOV E P0005 T02280217
KTPA 041253Z 32004KT 5SM -TSRA BR SCT060CB OVC110 23/21 A2985 RMK AO2 RAB40 TSB32 SLP108 OCNL LTGICCG SE-SW TS SE-SW MOV E P0001 T02280211
KTPA 041232Z 27008KT 10SM TS SCT060CB OVC110 23/21 A2985 RMK AO2 TSB32 OCNL LTGICCG SE-SW TS SE-SW MOV E T02280211
KTPA 041153Z 19006KT 10SM SCT050CB BKN080 OVC110 21/19 A2984 RMK AO2 WSHFT 1040 RAE32 TSE44 SLP104 CB E-W MOV E P0025 60129 70129 T02110189 10256 20200 53013
KTPA 041145Z 00000KT 10SM SCT050CB BKN085 OVC110 21/19 A2983 RMK AO2 WSHFT 1040 RAE32 TSE44 CB E-W MOV E P0025 T02110189
KTPA 041133Z 13004KT 7SM TS SCT040CB BKN055 OVC110 21/19 A2982 RMK AO2 WSHFT 1040 RAE32 OCNL LTGICCG NE-W TS NE-W MOV E P0025 T02060189
KTPA 041112Z 34005G15KT 4SM -TSRA BR FEW015 OVC039CB 20/19 A2981 RMK AO2 WSHFT 1040 OCNL LTGICCCCG ALQDS TS ALQDS MOV E P0019 T02000194
KTPA 041107Z 29007KT 2 1/2SM R01L/6000VP6000FT TSRA BR FEW015 OVC033CB 21/19 A2980 RMK AO2 WSHFT 1040 TWR VIS 3 FRQ LTGICCCCG ALQDS TS ALQDS MOV E P0017 T02060194 $
KTPA 041058Z 30015KT 2SM R01L/5500VP6000FT TSRA BR FEW009 SCT016 OVC024CB 21/19 A2981 RMK AO2 WSHFT 1040 TWR VIS 3 CONS LTGICCCCG ALQDS TS ALQDS MOV E P0006 T02060194 $
KTPA 041053Z COR 31015G35KT 2SM R01L/2000VP6000FT TSRA BR SCT009 BKN034CB OVC090 20/19 A2982 RMK AO2 PK WND 29038/1042 WSHFT 1034 TWR VIS 3 RAB0955 TSB15 SLP098 CONS LTGICCCCG ALQDS TS ALQDS MOV E P0104 T02000194 $
KTPA 041048Z 34022G38KT 1/2SM R01L/1800V5500FT +TSRA FG SCT009 BKN034 OVC090 20/19 A2982 RMK AO2 PK WND 29038/1042 WSHFT 1034 RAB0955 TSB15 CONS LTGICCCCG ALQDS TS ALQDS MOV E P0088 $
KTPA 041037Z 28027G37KT 1 1/4SM R01L/1800VP6000FT -TSRA BR SCT012 BKN032 OVC110 23/22 A2982 RMK AO2 PK WND 28037/1035 RAB0955 TSB15 PRESRR CONS LTGICCCCG W-N TS W-N MOV E P0006 T02330222 $

METAR Board
Radar Display
Forecast Discussion

TAF Board Legend

Potential Impact
Threat None Slight Moderate High
Visibility (sm) ≥5.1 5.1>X≥3 3>X≥1 <1
Ceiling (100 ft) ≥30.1 30.1>X≥10 10>X≥5 <5
Wind Speed (kt) <10 10≤X<20 20≤X<30 ≥30
Wind Gust (kt) <15 15≤X<25 25≤X<35 ≥35
Weather No Wx Reported VCTS,-TS,-FZRA,SN TS,FZRA +TS,+FZRA,+SN